Time;durP1;ratioP1;P1;durP2;ratioP2;P2;SDS_P1;SDS_P2;PMS_P1;PMS_P2;Temp;Humidity;BMP_temperature;BMP_pressure;BME280_temperature;BME280_humidity;BME280_pressure;Samples;Min_cycle;Max_cycle;Signal;HPM_P1;HPM_P2
2022/10/03 00:00:12;;;;;;;18.80;5.27;;;11.20;1.00;;;;;;6263426;28;20236;-54
2022/10/03 00:03:36;;;;;;;25.23;5.83;;;11.20;1.00;;;;;;6286330;28;20511;-54
2022/10/03 00:06:52;;;;;;;17.43;5.00;;;11.30;1.00;;;;;;6300744;28;20729;-55
2022/10/03 00:10:08;;;;;;;18.43;5.10;;;11.30;1.00;;;;;;6267768;28;20241;-53
2022/10/03 00:13:24;;;;;;;13.07;5.13;;;11.40;1.00;;;;;;6261922;28;20599;-53
2022/10/03 00:16:39;;;;;;;15.33;5.13;;;11.40;1.00;;;;;;6261098;28;20246;-54
2022/10/03 00:19:51;;;;;;;19.97;5.90;;;11.40;1.00;;;;;;6271022;28;20251;-54
2022/10/03 00:23:01;;;;;;;20.27;4.83;;;11.50;1.00;;;;;;6285770;28;20470;-54
2022/10/03 00:30:03;;;;;;;24.67;5.00;;;11.50;1.00;;;;;;6329368;27;20576;-54
2022/10/03 00:33:21;;;;;;;11.70;4.80;;;11.50;1.00;;;;;;6300501;28;20244;-54
2022/10/03 00:36:33;;;;;;;17.43;5.60;;;11.60;1.00;;;;;;6316329;27;20228;-54
2022/10/03 00:39:49;;;;;;;17.73;5.10;;;11.60;1.00;;;;;;6351013;27;20242;-54
2022/10/03 00:43:33;;;;;;;16.90;4.73;;;11.60;1.00;;;;;;6355270;27;20243;-55
2022/10/03 00:47:02;;;;;;;20.57;4.63;;;11.60;1.00;;;;;;6329665;28;20689;-53
2022/10/03 00:50:38;;;;;;;14.93;4.00;;;11.60;1.00;;;;;;6343728;27;20288;-54
2022/10/03 00:53:53;;;;;;;15.50;4.80;;;11.60;1.00;;;;;;6327170;28;20247;-54
2022/10/03 00:57:25;;;;;;;15.37;4.80;;;11.60;1.00;;;;;;6329884;28;20240;-54
2022/10/03 01:00:29;;;;;;;14.20;4.77;;;11.60;1.00;;;;;;6332033;28;20490;-59
2022/10/03 01:03:42;;;;;;;15.67;5.00;;;11.60;1.00;;;;;;6356467;27;20239;-54
2022/10/03 01:06:48;;;;;;;20.03;4.97;;;11.50;1.00;;;;;;6328512;28;20233;-54
2022/10/03 01:10:01;;;;;;;16.97;5.10;;;11.50;1.00;;;;;;6330760;27;20247;-54
2022/10/03 01:13:17;;;;;;;18.37;5.00;;;11.60;1.00;;;;;;6355761;27;20421;-54
2022/10/03 01:16:26;;;;;;;17.00;4.57;;;11.60;1.00;;;;;;6354004;27;20235;-54
2022/10/03 01:19:48;;;;;;;18.60;4.37;;;11.60;1.00;;;;;;6355831;27;20223;-53
2022/10/03 01:23:07;;;;;;;16.80;4.70;;;11.50;1.00;;;;;;6349198;27;20239;-53
2022/10/03 01:26:26;;;;;;;16.03;4.53;;;11.50;1.00;;;;;;6351841;27;20235;-55
2022/10/03 01:33:10;;;;;;;10.23;4.63;;;11.50;1.00;;;;;;6340797;27;20695;-55
2022/10/03 01:36:19;;;;;;;14.80;4.90;;;11.50;1.00;;;;;;6348696;27;20342;-54
2022/10/03 01:39:27;;;;;;;7.90;4.13;;;11.50;1.00;;;;;;6320425;28;20354;-54
2022/10/03 01:42:40;;;;;;;8.90;4.30;;;11.60;1.00;;;;;;6311814;28;20630;-54
2022/10/03 01:46:01;;;;;;;12.83;4.23;;;11.50;1.00;;;;;;6312007;28;20224;-52
2022/10/03 01:49:10;;;;;;;13.07;4.17;;;11.60;1.00;;;;;;6312568;28;20378;-55
2022/10/03 01:52:24;;;;;;;10.40;4.93;;;11.60;1.00;;;;;;6336719;27;20243;-54
2022/10/03 01:55:41;;;;;;;13.23;4.80;;;11.60;1.00;;;;;;6323082;27;20251;-54
2022/10/03 01:58:55;;;;;;;11.00;4.40;;;11.60;1.00;;;;;;6311737;28;20233;-54
2022/10/03 02:02:07;;;;;;;13.03;4.43;;;11.70;1.00;;;;;;6335525;27;20248;-55
2022/10/03 02:05:14;;;;;;;13.37;4.93;;;11.60;1.00;;;;;;6333207;27;20680;-55
2022/10/03 02:08:30;;;;;;;10.50;4.67;;;11.60;1.00;;;;;;6312258;28;20501;-54
2022/10/03 02:11:38;;;;;;;10.80;4.47;;;11.60;1.00;;;;;;6310268;28;20233;-54
2022/10/03 02:14:51;;;;;;;15.37;4.17;;;11.60;1.00;;;;;;6311510;28;20224;-55
2022/10/03 02:17:57;;;;;;;11.80;4.37;;;11.60;1.00;;;;;;6311413;28;20252;-53
2022/10/03 02:21:13;;;;;;;7.03;3.87;;;11.60;1.00;;;;;;6332441;27;20886;-54
2022/10/03 02:24:32;;;;;;;8.77;4.43;;;11.60;1.00;;;;;;6319752;27;20229;-54
2022/10/03 02:28:00;;;;;;;6.80;4.03;;;11.70;1.00;;;;;;6307440;28;20233;-53
2022/10/03 02:31:29;;;;;;;10.17;4.13;;;11.80;1.00;;;;;;6309879;28;20314;-54
2022/10/03 02:35:01;;;;;;;12.63;4.30;;;11.80;1.00;;;;;;6326686;27;20224;-53
2022/10/03 02:38:12;;;;;;;11.33;4.37;;;11.80;1.00;;;;;;6322681;27;20240;-55
2022/10/03 02:41:55;;;;;;;16.13;4.40;;;11.80;1.00;;;;;;6310009;28;20248;-53
2022/10/03 02:45:23;;;;;;;10.57;4.27;;;11.90;1.00;;;;;;6310834;28;20233;-54
2022/10/03 02:48:53;;;;;;;11.30;4.67;;;11.80;1.00;;;;;;6327499;28;20347;-54
2022/10/03 02:52:26;;;;;;;13.63;4.10;;;11.80;1.00;;;;;;6338384;27;20697;-55
2022/10/03 02:55:57;;;;;;;17.17;4.90;;;11.80;1.00;;;;;;6333972;27;20708;-54
2022/10/03 02:59:27;;;;;;;6.97;3.93;;;11.80;1.00;;;;;;6336055;27;20236;-54
2022/10/03 03:03:09;;;;;;;12.13;4.33;;;11.80;1.00;;;;;;6335347;27;20232;-53
2022/10/03 03:06:51;;;;;;;11.90;4.23;;;11.80;1.00;;;;;;6327699;27;20239;-54
2022/10/03 03:10:33;;;;;;;12.00;3.87;;;11.80;1.00;;;;;;6327094;27;20604;-53
2022/10/03 03:14:22;;;;;;;11.83;3.93;;;11.80;1.00;;;;;;6322861;28;20293;-55
2022/10/03 03:17:34;;;;;;;12.63;4.30;;;11.80;1.00;;;;;;6328674;28;20239;-54
2022/10/03 03:21:05;;;;;;;13.10;4.80;;;11.80;1.00;;;;;;6339751;27;20228;-55
2022/10/03 03:24:28;;;;;;;10.57;4.40;;;11.80;1.00;;;;;;6330394;27;20662;-55
2022/10/03 03:27:47;;;;;;;15.47;4.63;;;11.90;1.00;;;;;;6335411;28;20631;-54
2022/10/03 03:31:01;;;;;;;13.10;4.40;;;11.90;1.00;;;;;;6334771;27;20239;-54
2022/10/03 03:34:14;;;;;;;12.67;4.53;;;11.90;1.00;;;;;;6314236;27;20389;-53
2022/10/03 03:37:26;;;;;;;12.47;4.10;;;11.90;1.00;;;;;;6334437;27;20669;-54
2022/10/03 03:40:40;;;;;;;15.33;4.43;;;11.90;1.00;;;;;;6331226;27;23018;-55
2022/10/03 03:43:58;;;;;;;12.90;4.40;;;11.90;1.00;;;;;;6319332;27;20587;-54
2022/10/03 03:47:18;;;;;;;14.30;4.60;;;11.90;1.00;;;;;;6331577;28;20265;-55
2022/10/03 03:50:42;;;;;;;12.27;4.23;;;11.80;1.00;;;;;;6325102;27;20257;-55
2022/10/03 03:54:01;;;;;;;10.47;4.33;;;11.90;1.00;;;;;;6325456;27;20228;-55
2022/10/03 03:57:34;;;;;;;10.13;4.37;;;11.80;1.00;;;;;;6328663;27;20614;-53
2022/10/03 04:01:02;;;;;;;11.30;5.13;;;11.90;1.00;;;;;;6332799;27;20232;-54
2022/10/03 04:04:16;;;;;;;12.87;4.50;;;11.80;1.00;;;;;;6327547;28;20216;-54
2022/10/03 04:07:33;;;;;;;16.70;4.73;;;11.80;1.00;;;;;;6330641;27;20236;-55
2022/10/03 04:10:47;;;;;;;13.60;4.73;;;11.80;1.00;;;;;;6327127;27;20239;-54
2022/10/03 04:14:18;;;;;;;12.40;4.47;;;11.80;1.00;;;;;;6321308;28;20724;-54
2022/10/03 04:21:12;;;;;;;10.07;4.20;;;11.80;1.00;;;;;;6325482;28;20469;-53
2022/10/03 04:24:43;;;;;;;9.67;4.87;;;11.80;1.00;;;;;;6332701;27;20312;-54
2022/10/03 04:28:12;;;;;;;14.00;4.70;;;11.80;1.00;;;;;;6337066;27;20256;-54
2022/10/03 04:31:28;;;;;;;16.90;5.03;;;11.80;1.00;;;;;;6332837;27;20637;-53
2022/10/03 04:34:45;;;;;;;14.77;5.40;;;11.80;1.00;;;;;;6332320;27;20236;-54
2022/10/03 04:37:57;;;;;;;9.37;4.53;;;11.80;1.00;;;;;;6328483;27;20237;-54
2022/10/03 04:41:08;;;;;;;14.17;4.20;;;11.80;1.00;;;;;;6323107;27;20255;-54
2022/10/03 04:44:21;;;;;;;15.30;4.00;;;11.80;1.00;;;;;;6332311;27;20243;-53
2022/10/03 04:47:28;;;;;;;7.70;4.00;;;11.80;1.00;;;;;;6322489;27;20291;-53
2022/10/03 04:50:38;;;;;;;12.63;4.37;;;11.80;1.00;;;;;;6331305;27;20251;-53
2022/10/03 04:53:52;;;;;;;10.93;4.03;;;11.80;1.00;;;;;;6324317;27;20250;-57
2022/10/03 04:57:01;;;;;;;16.50;4.73;;;11.80;1.00;;;;;;6329648;27;20239;-54
2022/10/03 05:00:20;;;;;;;13.93;4.47;;;11.80;1.00;;;;;;6330867;27;20673;-53
2022/10/03 05:03:34;;;;;;;10.90;4.90;;;11.80;1.00;;;;;;6327951;28;20240;-53
2022/10/03 05:06:48;;;;;;;14.43;4.10;;;11.80;1.00;;;;;;6314548;28;20220;-54
2022/10/03 05:09:55;;;;;;;15.43;4.33;;;11.80;1.00;;;;;;6322394;28;20623;-59
2022/10/03 05:13:07;;;;;;;12.03;4.10;;;11.80;1.00;;;;;;6320882;28;20244;-53
2022/10/03 05:16:20;;;;;;;17.80;5.83;;;11.70;1.00;;;;;;6332786;28;20220;-54
2022/10/03 05:19:46;;;;;;;10.33;3.77;;;11.70;1.00;;;;;;6335650;27;20235;-59
2022/10/03 05:22:59;;;;;;;14.67;4.70;;;11.80;1.00;;;;;;6335712;27;20623;-54
2022/10/03 05:26:10;;;;;;;17.87;4.57;;;11.80;1.00;;;;;;6332210;27;20232;-54
2022/10/03 05:29:40;;;;;;;8.30;4.70;;;11.80;1.00;;;;;;6329276;27;20277;-55
2022/10/03 05:32:47;;;;;;;18.30;4.37;;;11.90;1.00;;;;;;6333370;27;20236;-55
2022/10/03 05:36:06;;;;;;;12.13;4.20;;;11.80;1.00;;;;;;6328453;27;20239;-55
2022/10/03 05:39:26;;;;;;;9.97;4.30;;;11.80;1.00;;;;;;6335164;27;20229;-54
2022/10/03 05:42:46;;;;;;;15.80;5.33;;;11.80;1.00;;;;;;6331998;27;20274;-54
2022/10/03 05:45:57;;;;;;;14.57;4.40;;;11.90;1.00;;;;;;6330967;27;20232;-55
2022/10/03 05:49:18;;;;;;;10.23;4.13;;;11.90;1.00;;;;;;6335433;27;20600;-55
2022/10/03 05:52:48;;;;;;;12.67;3.63;;;11.90;1.00;;;;;;6332633;27;20597;-55
2022/10/03 05:56:05;;;;;;;22.57;4.80;;;11.90;1.00;;;;;;6321063;27;20311;-55
2022/10/03 05:59:39;;;;;;;9.20;3.87;;;11.90;1.00;;;;;;6335165;27;20307;-54
2022/10/03 06:03:12;;;;;;;11.37;4.20;;;11.90;1.00;;;;;;6339901;27;20607;-54
2022/10/03 06:06:24;;;;;;;8.83;4.07;;;11.90;1.00;;;;;;6329160;27;20220;-54
2022/10/03 06:09:48;;;;;;;16.03;4.30;;;12.00;1.00;;;;;;6330601;27;20243;-55
2022/10/03 06:13:05;;;;;;;12.07;4.33;;;12.00;1.00;;;;;;6336126;27;20540;-54
2022/10/03 06:16:24;;;;;;;13.10;4.43;;;11.90;1.00;;;;;;6323439;27;20637;-54
2022/10/03 06:19:43;;;;;;;5.77;4.20;;;11.90;1.00;;;;;;6322578;27;20507;-55
2022/10/03 06:23:11;;;;;;;7.33;3.87;;;12.00;1.00;;;;;;6331375;28;20240;-54
2022/10/03 06:27:04;;;;;;;12.60;4.50;;;12.00;1.00;;;;;;6333545;27;20234;-54
2022/10/03 06:30:39;;;;;;;9.57;3.70;;;12.00;1.00;;;;;;6332183;27;20231;-55
2022/10/03 06:34:07;;;;;;;9.40;4.30;;;12.00;1.00;;;;;;6331814;28;20235;-52
2022/10/03 06:37:49;;;;;;;13.27;4.43;;;12.00;1.00;;;;;;6329288;27;20230;-53
2022/10/03 06:41:30;;;;;;;13.07;3.93;;;12.00;1.00;;;;;;6322920;28;20740;-55
2022/10/03 06:44:54;;;;;;;12.80;3.80;;;12.10;1.00;;;;;;6332625;27;20235;-54
2022/10/03 06:48:13;;;;;;;8.77;3.70;;;12.20;1.00;;;;;;6326366;27;20367;-55
2022/10/03 06:51:41;;;;;;;11.60;4.10;;;12.30;1.00;;;;;;6326087;27;20908;-55
2022/10/03 06:55:28;;;;;;;15.57;4.00;;;12.20;1.00;;;;;;6328984;28;20307;-54
2022/10/03 06:59:04;;;;;;;11.53;3.83;;;12.30;1.00;;;;;;6304816;28;20232;-54
2022/10/03 07:02:51;;;;;;;12.80;4.07;;;12.40;1.00;;;;;;6326925;28;20229;-55
2022/10/03 07:06:10;;;;;;;10.37;4.03;;;12.40;1.00;;;;;;6329222;27;20240;-53
2022/10/03 07:09:59;;;;;;;18.97;4.50;;;12.40;1.00;;;;;;6325101;28;20716;-54
2022/10/03 07:13:38;;;;;;;15.90;4.57;;;12.40;1.00;;;;;;6325796;28;20374;-54
2022/10/03 07:17:00;;;;;;;10.70;4.00;;;12.50;1.00;;;;;;6333563;27;20232;-55
2022/10/03 07:20:26;;;;;;;9.90;4.03;;;12.60;1.00;;;;;;6330690;28;20240;-55
2022/10/03 07:23:48;;;;;;;15.73;4.50;;;12.70;1.00;;;;;;6328419;27;20223;-54
2022/10/03 07:27:18;;;;;;;6.43;3.50;;;12.70;1.00;;;;;;6322987;28;20236;-53
2022/10/03 07:30:22;;;;;;;14.03;4.37;;;12.80;1.00;;;;;;6326959;27;20244;-55
2022/10/03 07:34:13;;;;;;;11.40;3.83;;;12.80;1.00;;;;;;6331466;27;20235;-55
2022/10/03 07:41:21;;;;;;;10.47;4.37;;;12.90;1.00;;;;;;6323506;28;20391;-52
2022/10/03 07:44:54;;;;;;;10.70;3.50;;;13.00;1.00;;;;;;6327916;27;20247;-55
2022/10/03 07:48:31;;;;;;;13.47;4.40;;;13.10;1.00;;;;;;6333681;27;20676;-54
2022/10/03 07:51:44;;;;;;;14.27;4.23;;;13.20;1.00;;;;;;6304176;28;20466;-54
2022/10/03 07:55:28;;;;;;;9.77;4.00;;;13.20;1.00;;;;;;6325664;27;20255;-55
2022/10/03 07:59:02;;;;;;;12.93;3.43;;;13.20;1.00;;;;;;6299620;27;20232;-54
2022/10/03 08:02:26;;;;;;;12.50;4.27;;;13.20;1.00;;;;;;6318926;28;20350;-55
2022/10/03 08:05:43;;;;;;;13.63;4.10;;;13.20;1.00;;;;;;6328545;28;20329;-53
2022/10/03 08:09:22;;;;;;;11.17;4.23;;;13.20;1.00;;;;;;6314430;28;20456;-55
2022/10/03 08:13:01;;;;;;;8.57;3.90;;;13.20;1.00;;;;;;6324956;27;20228;-55
2022/10/03 08:16:22;;;;;;;11.70;3.90;;;13.20;1.00;;;;;;6330519;28;20335;-55
2022/10/03 08:19:42;;;;;;;8.00;3.80;;;13.30;1.00;;;;;;6330669;28;20480;-54
2022/10/03 08:22:59;;;;;;;11.33;4.27;;;13.40;1.00;;;;;;6323831;28;20241;-55
2022/10/03 08:26:14;;;;;;;11.93;3.73;;;13.50;1.00;;;;;;6322300;28;20232;-53
2022/10/03 08:29:41;;;;;;;12.83;4.00;;;13.60;1.00;;;;;;6332685;28;20434;-55
2022/10/03 08:33:20;;;;;;;10.23;3.73;;;13.60;1.00;;;;;;6324928;28;20239;-54
2022/10/03 08:37:04;;;;;;;10.93;3.67;;;13.70;1.00;;;;;;6321474;28;20769;-53
2022/10/03 08:40:52;;;;;;;13.90;4.23;;;13.70;1.00;;;;;;6324031;28;20554;-53
2022/10/03 08:44:29;;;;;;;14.37;4.17;;;13.80;1.00;;;;;;6326313;27;20236;-54
2022/10/03 08:48:23;;;;;;;8.07;3.93;;;13.70;1.00;;;;;;6317264;28;20240;-54
2022/10/03 08:52:07;;;;;;;10.87;3.73;;;13.80;1.00;;;;;;6334835;27;20227;-56
2022/10/03 08:55:41;;;;;;;13.63;4.10;;;13.90;1.00;;;;;;6328860;28;20228;-55
2022/10/03 08:59:23;;;;;;;14.90;3.57;;;13.90;1.00;;;;;;6328976;27;20335;-55
2022/10/03 09:03:00;;;;;;;13.00;3.80;;;14.00;1.00;;;;;;6287889;27;20240;-55
2022/10/03 09:06:51;;;;;;;16.57;4.00;;;14.20;1.00;;;;;;6334517;27;20236;-54
2022/10/03 09:10:35;;;;;;;15.57;4.27;;;14.20;1.00;;;;;;6331317;28;20655;-54
2022/10/03 09:14:20;;;;;;;10.87;3.47;;;14.30;1.00;;;;;;6329192;27;20512;-54
2022/10/03 09:17:54;;;;;;;10.93;4.00;;;14.40;1.00;;;;;;6323977;27;20232;-53
2022/10/03 09:21:39;;;;;;;8.53;4.10;;;14.40;1.00;;;;;;6328595;27;20237;-54
2022/10/03 09:25:04;;;;;;;11.13;4.00;;;14.40;1.00;;;;;;6335780;27;20240;-55
2022/10/03 09:28:39;;;;;;;11.30;3.77;;;14.50;1.00;;;;;;6337051;27;20524;-53
2022/10/03 09:32:24;;;;;;;15.43;4.07;;;14.60;1.00;;;;;;6327672;28;20235;-54
2022/10/03 09:36:04;;;;;;;8.97;4.00;;;14.50;1.00;;;;;;6334502;27;20367;-54
2022/10/03 09:39:45;;;;;;;8.90;3.30;;;14.60;1.00;;;;;;6336409;27;20228;-56
2022/10/03 09:43:18;;;;;;;13.00;3.83;;;14.70;1.00;;;;;;6329425;28;20259;-53
2022/10/03 09:50:56;;;;;;;14.60;3.60;;;14.90;1.00;;;;;;6332222;27;20735;-55
2022/10/03 09:54:26;;;;;;;11.67;3.67;;;14.90;1.00;;;;;;6327639;27;20256;-53
2022/10/03 09:57:59;;;;;;;9.10;3.93;;;15.00;1.00;;;;;;6332916;27;20232;-53
2022/10/03 10:01:19;;;;;;;12.37;3.57;;;15.40;1.00;;;;;;6323479;27;20251;-54
2022/10/03 10:04:56;;;;;;;9.63;3.97;;;15.50;1.00;;;;;;6334566;27;20246;-54
2022/10/03 10:08:32;;;;;;;10.53;3.67;;;15.50;1.00;;;;;;6330590;27;20623;-55
2022/10/03 10:12:04;;;;;;;8.10;3.67;;;15.40;1.00;;;;;;6324081;27;20236;-54
2022/10/03 10:15:22;;;;;;;8.20;3.70;;;15.30;1.00;;;;;;6308229;28;20239;-54
2022/10/03 10:18:51;;;;;;;10.70;4.03;;;15.30;1.00;;;;;;6333643;28;20705;-54
2022/10/03 10:22:34;;;;;;;8.30;4.10;;;15.30;1.00;;;;;;6329487;27;20236;-54
2022/10/03 10:26:21;;;;;;;7.57;3.60;;;15.40;1.00;;;;;;6333550;27;20282;-54
2022/10/03 10:29:45;;;;;;;14.50;3.53;;;15.60;1.00;;;;;;6325314;27;20396;-56
2022/10/03 10:33:28;;;;;;;9.77;3.57;;;15.60;1.00;;;;;;6317749;27;20271;-55
2022/10/03 10:37:07;;;;;;;12.13;3.63;;;15.70;1.00;;;;;;6295826;27;20236;-56
2022/10/03 10:40:50;;;;;;;9.47;3.70;;;16.10;1.00;;;;;;6326296;27;20216;-53
2022/10/03 10:44:34;;;;;;;11.40;3.50;;;16.30;1.00;;;;;;6339664;27;20248;-54
2022/10/03 10:48:17;;;;;;;8.37;3.57;;;16.40;1.00;;;;;;6323889;27;20241;-54
2022/10/03 10:52:10;;;;;;;4.50;3.27;;;16.40;1.00;;;;;;6327219;27;20413;-55
2022/10/03 10:55:52;;;;;;;8.70;3.20;;;16.30;1.00;;;;;;6277277;28;20221;-53
2022/10/03 10:59:42;;;;;;;5.63;3.03;;;16.40;1.00;;;;;;6281513;27;20232;-56
2022/10/03 11:03:18;;;;;;;8.37;3.60;;;16.60;1.00;;;;;;6327558;27;20232;-55
2022/10/03 11:06:57;;;;;;;9.67;3.83;;;16.40;1.00;;;;;;6309840;28;20700;-55
2022/10/03 11:10:30;;;;;;;10.77;3.37;;;16.50;1.00;;;;;;6323008;27;20247;-54
2022/10/03 11:14:23;;;;;;;5.60;2.93;;;16.40;1.00;;;;;;6330976;27;20236;-55
2022/10/03 11:17:50;;;;;;;9.37;3.10;;;16.40;1.00;;;;;;6328712;28;20232;-53
2022/10/03 11:21:26;;;;;;;5.73;3.20;;;16.40;1.00;;;;;;6328949;27;20682;-54
2022/10/03 11:25:07;;;;;;;7.87;3.40;;;16.40;1.00;;;;;;6320157;27;20251;-54
2022/10/03 11:29:08;;;;;;;5.00;3.10;;;16.50;1.00;;;;;;6326385;27;20417;-55
2022/10/03 11:32:49;;;;;;;7.63;3.10;;;16.70;1.00;;;;;;6255947;28;20691;-56
2022/10/03 11:36:31;;;;;;;7.10;3.13;;;16.70;1.00;;;;;;6320221;27;20252;-54
2022/10/03 11:39:46;;;;;;;4.73;2.77;;;16.50;1.00;;;;;;6323866;28;20247;-55
2022/10/03 11:42:56;;;;;;;8.10;3.30;;;16.50;1.00;;;;;;6322204;28;20691;-55
2022/10/03 11:46:18;;;;;;;6.87;3.27;;;16.40;1.00;;;;;;6326590;28;20224;-53
2022/10/03 11:49:53;;;;;;;7.47;3.30;;;16.40;1.00;;;;;;6330490;27;20251;-55
2022/10/03 11:53:13;;;;;;;10.77;3.17;;;16.50;1.00;;;;;;6326118;27;20744;-53
2022/10/03 11:56:32;;;;;;;6.37;3.13;;;16.40;1.00;;;;;;6327988;28;20613;-55
2022/10/03 11:59:53;;;;;;;7.40;2.93;;;16.50;1.00;;;;;;6330180;27;20220;-54
2022/10/03 12:03:12;;;;;;;5.80;2.90;;;16.50;1.00;;;;;;6332113;27;20595;-54
2022/10/03 12:10:12;;;;;;;5.77;2.40;;;16.70;1.00;;;;;;6320326;27;20243;-52
2022/10/03 12:13:18;;;;;;;6.47;3.10;;;16.80;1.00;;;;;;6330342;27;20224;-55
2022/10/03 12:16:28;;;;;;;4.90;3.03;;;16.80;1.00;;;;;;6331764;28;20235;-54
2022/10/03 12:19:37;;;;;;;7.37;2.87;;;16.90;1.00;;;;;;6334401;27;20228;-54
2022/10/03 12:22:45;;;;;;;4.43;3.00;;;16.80;1.00;;;;;;6328273;28;20966;-55
2022/10/03 12:25:52;;;;;;;6.73;2.87;;;16.90;1.00;;;;;;6316054;28;20231;-55
2022/10/03 12:28:57;;;;;;;7.70;3.07;;;16.80;1.00;;;;;;6316384;27;20236;-53
2022/10/03 12:32:15;;;;;;;4.47;2.90;;;16.70;1.00;;;;;;6326692;27;20446;-54
2022/10/03 12:35:36;;;;;;;10.10;3.17;;;16.50;1.00;;;;;;6320493;27;20287;-52
2022/10/03 12:38:56;;;;;;;7.87;3.10;;;16.20;1.00;;;;;;6328520;28;20606;-54
2022/10/03 12:42:15;;;;;;;6.07;3.10;;;16.20;1.00;;;;;;6318315;27;20733;-54
2022/10/03 12:45:26;;;;;;;10.83;3.50;;;16.30;1.00;;;;;;6335032;28;20266;-54
2022/10/03 12:48:41;;;;;;;8.50;3.10;;;16.40;1.00;;;;;;6332171;27;20255;-60
2022/10/03 12:51:54;;;;;;;6.03;3.40;;;16.70;1.00;;;;;;6330214;27;20232;-54
2022/10/03 12:55:15;;;;;;;4.77;2.83;;;16.80;1.00;;;;;;6323794;27;20239;-55
2022/10/03 12:58:29;;;;;;;5.43;2.87;;;16.70;1.00;;;;;;6326383;28;20228;-53
2022/10/03 13:01:51;;;;;;;6.30;2.83;;;16.60;1.00;;;;;;6336601;27;20610;-53
2022/10/03 13:05:21;;;;;;;4.73;2.60;;;16.60;1.00;;;;;;6327331;28;20232;-54
2022/10/03 13:08:43;;;;;;;3.33;2.80;;;16.50;1.00;;;;;;6320021;28;20224;-54
2022/10/03 13:11:58;;;;;;;5.17;2.93;;;16.50;1.00;;;;;;6327641;28;20258;-53
2022/10/03 13:15:44;;;;;;;7.00;3.27;;;16.40;1.00;;;;;;6326926;28;20725;-55
2022/10/03 13:18:53;;;;;;;5.07;3.07;;;16.40;1.00;;;;;;6336326;27;20263;-53
2022/10/03 13:22:06;;;;;;;4.50;2.60;;;16.50;1.00;;;;;;6335322;27;20320;-54
2022/10/03 13:25:17;;;;;;;4.77;2.30;;;16.80;1.00;;;;;;6329157;27;20254;-54
2022/10/03 13:28:29;;;;;;;4.17;2.87;;;17.00;1.00;;;;;;6323899;28;20224;-54
2022/10/03 13:31:34;;;;;;;3.90;2.47;;;17.20;1.00;;;;;;6328642;27;20466;-54
2022/10/03 13:34:56;;;;;;;3.73;2.63;;;17.30;1.00;;;;;;6325741;27;20237;-53
2022/10/03 13:38:22;;;;;;;2.67;2.40;;;17.30;1.00;;;;;;6333170;27;20247;-55
2022/10/03 13:41:51;;;;;;;3.63;2.30;;;17.30;1.00;;;;;;6324158;27;20756;-53
2022/10/03 13:44:58;;;;;;;7.40;2.90;;;17.20;1.00;;;;;;6331457;27;20688;-54
2022/10/03 13:48:07;;;;;;;2.73;2.40;;;17.20;1.00;;;;;;6334476;27;20263;-54
2022/10/03 13:51:26;;;;;;;6.47;2.80;;;17.20;1.00;;;;;;6333485;27;20878;-54
2022/10/03 13:55:04;;;;;;;3.60;2.37;;;17.10;1.00;;;;;;6328788;27;20387;-54
2022/10/03 13:58:31;;;;;;;4.87;2.40;;;17.10;1.00;;;;;;6322868;28;20773;-52
2022/10/03 14:01:44;;;;;;;5.67;2.73;;;17.20;1.00;;;;;;6326648;28;20633;-54
2022/10/03 14:05:00;;;;;;;4.10;2.80;;;17.20;1.00;;;;;;6330525;27;20260;-53
2022/10/03 14:08:13;;;;;;;9.10;3.30;;;17.20;1.00;;;;;;6336222;27;20228;-53
2022/10/03 14:11:25;;;;;;;6.67;3.00;;;17.40;1.00;;;;;;6322004;28;20235;-54
2022/10/03 14:14:45;;;;;;;6.67;2.80;;;17.50;1.00;;;;;;6330690;27;20232;-53
2022/10/03 14:17:55;;;;;;;7.27;2.80;;;17.50;1.00;;;;;;6342456;27;20228;-54
2022/10/03 14:21:36;;;;;;;8.90;2.67;;;17.50;1.00;;;;;;6341168;27;20244;-54
2022/10/03 14:24:57;;;;;;;5.70;3.10;;;17.40;1.00;;;;;;6341059;27;20234;-54
2022/10/03 14:28:07;;;;;;;6.70;2.80;;;17.50;1.00;;;;;;6326752;27;20792;-53
2022/10/03 14:31:17;;;;;;;4.20;2.60;;;17.40;1.00;;;;;;6326338;27;20251;-54
2022/10/03 14:34:41;;;;;;;7.03;2.90;;;17.20;1.00;;;;;;6330518;27;20635;-56
2022/10/03 14:37:52;;;;;;;3.37;2.80;;;17.20;1.00;;;;;;6327615;27;20243;-54
2022/10/03 14:41:03;;;;;;;6.87;3.33;;;17.00;1.00;;;;;;6332705;27;20743;-52
2022/10/03 14:44:10;;;;;;;8.17;3.10;;;17.00;1.00;;;;;;6333028;27;20224;-52
2022/10/03 14:47:18;;;;;;;5.73;2.80;;;16.90;1.00;;;;;;6331679;28;20259;-55
2022/10/03 14:50:25;;;;;;;6.93;2.70;;;16.70;1.00;;;;;;6327742;27;20232;-52
2022/10/03 14:53:29;;;;;;;3.57;2.97;;;16.60;1.00;;;;;;6332348;27;20451;-53
2022/10/03 14:56:41;;;;;;;5.87;3.33;;;16.50;1.00;;;;;;6327585;27;20878;-55
2022/10/03 14:59:53;;;;;;;4.47;2.80;;;16.40;1.00;;;;;;6328008;27;20243;-54
2022/10/03 15:02:55;;;;;;;4.20;3.27;;;16.40;1.00;;;;;;6314298;27;20486;-54
2022/10/03 15:06:02;;;;;;;3.93;2.93;;;16.30;1.00;;;;;;6306797;27;20447;-54
2022/10/03 15:09:09;;;;;;;5.63;3.00;;;16.30;1.00;;;;;;6322913;27;20251;-55
2022/10/03 15:12:19;;;;;;;7.47;3.20;;;16.30;1.00;;;;;;6332908;27;20688;-52
2022/10/03 15:15:26;;;;;;;5.60;3.10;;;16.20;1.00;;;;;;6330784;28;20232;-53
2022/10/03 15:18:31;;;;;;;11.17;3.27;;;16.20;1.00;;;;;;6332579;27;20228;-52
2022/10/03 15:21:35;;;;;;;10.57;3.50;;;16.20;1.00;;;;;;6335766;27;20228;-52
2022/10/03 15:24:41;;;;;;;10.43;3.63;;;16.10;1.00;;;;;;6329962;27;20232;-54
2022/10/03 15:27:49;;;;;;;5.87;2.97;;;16.00;1.00;;;;;;6332008;27;20239;-53
2022/10/03 15:30:54;;;;;;;7.57;3.07;;;16.00;1.00;;;;;;6330158;28;20327;-54
2022/10/03 15:33:59;;;;;;;4.00;2.70;;;16.00;1.00;;;;;;6328396;27;20228;-54
2022/10/03 15:37:12;;;;;;;7.80;3.00;;;16.00;1.00;;;;;;6328126;27;20224;-54
2022/10/03 15:40:23;;;;;;;4.67;3.30;;;15.90;1.00;;;;;;6327529;28;21120;-54
2022/10/03 15:43:35;;;;;;;5.10;3.27;;;15.80;1.00;;;;;;6331361;27;20247;-54
2022/10/03 15:46:44;;;;;;;7.77;3.17;;;15.80;1.00;;;;;;6323030;27;20220;-53
2022/10/03 15:49:53;;;;;;;6.13;3.13;;;15.70;1.00;;;;;;6335673;27;20363;-54
2022/10/03 15:53:00;;;;;;;4.40;3.27;;;15.60;1.00;;;;;;6327936;27;20236;-55
2022/10/03 15:56:28;;;;;;;8.27;3.30;;;15.60;1.00;;;;;;6329555;27;20225;-54
2022/10/03 15:59:36;;;;;;;6.37;2.97;;;15.60;1.00;;;;;;6328547;27;20398;-55
2022/10/03 16:02:51;;;;;;;4.87;3.03;;;15.50;1.00;;;;;;6326094;27;20328;-54
2022/10/03 16:06:02;;;;;;;6.40;3.20;;;15.40;1.00;;;;;;6331525;27;20225;-54
2022/10/03 16:09:15;;;;;;;12.80;3.30;;;15.40;1.00;;;;;;6337849;27;20239;-54
2022/10/03 16:12:53;;;;;;;8.77;3.53;;;15.40;1.00;;;;;;6329120;27;20236;-56
2022/10/03 16:16:12;;;;;;;14.30;4.20;;;15.40;1.00;;;;;;6325660;27;20232;-54
2022/10/03 16:19:31;;;;;;;5.60;3.20;;;15.30;1.00;;;;;;6324931;27;20656;-54
2022/10/03 16:22:42;;;;;;;7.90;3.77;;;15.30;1.00;;;;;;6321155;27;20233;-55
2022/10/03 16:25:49;;;;;;;7.20;3.30;;;15.30;1.00;;;;;;6320554;28;20227;-54
2022/10/03 16:29:01;;;;;;;8.63;3.90;;;15.20;1.00;;;;;;6317656;28;20644;-55
2022/10/03 16:32:09;;;;;;;10.07;3.53;;;15.10;1.00;;;;;;6329759;28;20239;-54
2022/10/03 16:35:30;;;;;;;7.17;3.40;;;15.00;1.00;;;;;;6329509;27;20228;-53
2022/10/03 16:38:36;;;;;;;10.80;3.83;;;14.90;1.00;;;;;;6328772;28;20481;-55
2022/10/03 16:41:42;;;;;;;4.10;3.00;;;14.90;1.00;;;;;;6333372;27;20236;-53
2022/10/03 16:44:50;;;;;;;5.77;3.20;;;14.90;1.00;;;;;;6331069;28;20236;-55
2022/10/03 16:51:21;;;;;;;7.40;3.23;;;14.80;1.00;;;;;;6322877;27;20248;-55
2022/10/03 16:54:25;;;;;;;6.77;3.20;;;14.70;1.00;;;;;;6328061;27;20277;-54
2022/10/03 16:57:35;;;;;;;4.83;3.00;;;14.70;1.00;;;;;;6337823;27;20238;-54
2022/10/03 17:00:49;;;;;;;7.37;3.70;;;14.70;1.00;;;;;;6323707;27;20591;-54
2022/10/03 17:04:16;;;;;;;7.40;3.50;;;14.70;1.00;;;;;;6326734;27;20424;-54
2022/10/03 17:07:22;;;;;;;5.90;3.33;;;14.60;1.00;;;;;;6326121;27;20361;-54
2022/10/03 17:10:36;;;;;;;6.43;3.30;;;14.60;1.00;;;;;;6330652;27;20232;-55
2022/10/03 17:13:45;;;;;;;3.57;2.93;;;14.60;1.00;;;;;;6318396;27;20235;-53
2022/10/03 17:16:54;;;;;;;4.07;3.20;;;14.50;1.00;;;;;;6336637;27;20225;-54
2022/10/03 17:20:05;;;;;;;6.50;3.30;;;14.50;1.00;;;;;;6335488;27;20232;-55
2022/10/03 17:23:13;;;;;;;7.00;3.30;;;14.40;1.00;;;;;;6336257;27;20284;-53
2022/10/03 17:26:22;;;;;;;4.10;2.90;;;14.50;1.00;;;;;;6329541;27;20780;-55
2022/10/03 17:29:30;;;;;;;7.83;3.23;;;14.40;1.00;;;;;;6325920;28;20235;-53
2022/10/03 17:32:38;;;;;;;5.07;2.90;;;14.50;1.00;;;;;;6333957;27;20513;-53
2022/10/03 17:35:49;;;;;;;7.03;3.20;;;14.40;1.00;;;;;;6331709;27;20241;-52
2022/10/03 17:39:01;;;;;;;3.23;2.60;;;14.40;1.00;;;;;;6333541;27;20235;-54
2022/10/03 17:42:12;;;;;;;4.43;2.77;;;14.30;1.00;;;;;;6335832;27;20232;-54
2022/10/03 17:45:29;;;;;;;5.90;2.63;;;14.30;1.00;;;;;;6336378;27;20243;-54
2022/10/03 17:48:39;;;;;;;6.20;3.30;;;14.30;1.00;;;;;;6337286;27;20235;-53
2022/10/03 17:51:46;;;;;;;6.10;3.00;;;14.30;1.00;;;;;;6327563;27;20239;-55
2022/10/03 17:54:55;;;;;;;6.60;3.40;;;14.20;1.00;;;;;;6330723;27;20747;-54
2022/10/03 17:58:00;;;;;;;7.07;3.20;;;14.20;1.00;;;;;;6325373;27;20314;-54
2022/10/03 18:01:10;;;;;;;3.90;3.13;;;14.20;1.00;;;;;;6329460;27;20243;-54